03:44
Airports
History
Links
Donate
Help keep this website running!
PayPal
Bitcoin
This page is community maintained. The information is intended for PC simulator navigation or reference.
Always use approved charts for navigation.
SIME
Comandante Carlos Inacio Agnes
Comandante Carlos Inacio Agnes (SIME)
Imperatriz, Maranhão, Brazil (65928)
4
Lat/Lng:5° 34' 36" S / 47° 25' 22" W
-5.576667 / -47.422778
Elevation:443'ft / 135mMSL
ID / ICAO:SIME
Runways:1
Longest:09-27
Gravel 1,046m / 3,432ft
Nearby Weather20:00 GMT 2017-12-12
Nearby weather at SBIZ, Prefeito Renato Moreira located 4.0 nautical miles from SIME
Altimeter: 29.71
Visibility: 6.2 statute miles
Wind: 2 knots (from 180°)
Temp: 35°c / 95°f
Humidity: 47.0%

METAR: SBIZ 122000Z 18002KT 9999 FEW025 35/22 Q1006

(Powered by phpweather)
Runway 09 / 27
Dimensions:1046.1 x 20.1m 3432' x 66'ft
Surface:Gravel
Runway 09 [A]Runway 27 [B]
Heading:069°TH 249°TH
Lat:
Lng:
5° 34' 42.03"S
47° 25' 37.99"W
5° 34' 29.97"S
47° 25' 6.01"W
User Notes and Comments
5° 34' 36" S / 47° 25' 22" W
Distance To
Airport ID:
Nearby Airports
(U) Prefeito Renato Moreira 4.0 NM
SBIZ ( WX ) NW 320°
4 Haras Bela Vista 6.0 NM
SJVY WNW 293°
4 Fazenda Agua Boa 26.6 NM
SNJC S 175°
4 Frisama Acailandia 43.7 NM
SJHX N 356°
(C) Araguatins 46.6 NM
SWAI W 267°
(U) ARAGUATINS 48.2 NM
SJGU W 261°
(U) Simasa 48.9 NM
SJOJ N
VFR Chart
Flight Planning at SkyVector.com